createdAt,value
2022-09-10T00:00:23.609Z,61.16
2022-09-10T00:02:50.700Z,59.47
2022-09-10T00:05:18.201Z,59.49
2022-09-10T00:07:45.290Z,61.23
2022-09-10T00:10:12.936Z,60.45
2022-09-10T00:12:40.515Z,58.87
2022-09-10T00:15:07.869Z,61.21
2022-09-10T00:17:36.822Z,60.25
2022-09-10T00:20:04.013Z,60.21
2022-09-10T00:22:31.399Z,58.45
2022-09-10T00:24:58.440Z,59.89
2022-09-10T00:27:26.113Z,61.83
2022-09-10T00:29:53.389Z,59.42
2022-09-10T00:32:23.970Z,60.46
2022-09-10T00:34:51.016Z,57.45
2022-09-10T00:37:18.448Z,57.26
2022-09-10T00:39:45.540Z,57.75
2022-09-10T00:42:12.622Z,58.52
2022-09-10T00:44:39.716Z,57.69
2022-09-10T00:47:09.615Z,57.32
2022-09-10T00:49:41.044Z,58.60
2022-09-10T00:52:08.093Z,59.71
2022-09-10T00:54:36.114Z,59.10
2022-09-10T00:57:03.873Z,59.22
2022-09-10T00:59:31.031Z,59.75
2022-09-10T01:01:59.745Z,60.73
2022-09-10T01:04:27.308Z,59.82
2022-09-10T01:06:54.494Z,60.20
2022-09-10T01:09:21.806Z,59.30
2022-09-10T01:11:55.067Z,60.01
2022-09-10T01:14:22.209Z,62.05
2022-09-10T01:16:52.877Z,60.56
2022-09-10T01:19:22.722Z,61.85
2022-09-10T01:22:01.069Z,60.31
2022-09-10T01:24:46.608Z,61.40
2022-09-10T01:27:31.978Z,61.72
2022-09-10T01:30:03.407Z,60.95
2022-09-10T01:32:30.706Z,60.74
2022-09-10T01:35:16.688Z,59.81
2022-09-10T01:37:45.538Z,59.67
2022-09-10T01:40:12.711Z,62.36
2022-09-10T01:42:39.839Z,61.77
2022-09-10T01:45:07.451Z,62.46
2022-09-10T01:47:38.286Z,64.78
2022-09-10T01:50:18.201Z,63.05
2022-09-10T01:52:51.641Z,63.62
2022-09-10T01:55:33.255Z,63.48
2022-09-10T01:58:03.298Z,63.11
2022-09-10T02:00:30.389Z,61.58
2022-09-10T02:03:07.879Z,63.08
2022-09-10T02:05:36.418Z,61.60
2022-09-10T02:08:20.247Z,60.87
2022-09-10T02:10:51.866Z,62.04
2022-09-10T02:13:18.910Z,61.12
2022-09-10T02:15:46.284Z,60.43
2022-09-10T02:18:14.532Z,60.04
2022-09-10T02:20:41.547Z,60.22
2022-09-10T02:23:09.255Z,60.67
2022-09-10T02:25:37.597Z,60.46
2022-09-10T02:28:05.264Z,60.10
2022-09-10T02:30:32.364Z,60.14
2022-09-10T02:32:59.518Z,59.34
2022-09-10T02:35:26.578Z,59.52
2022-09-10T02:37:53.641Z,58.81
2022-09-10T02:40:20.775Z,58.76
2022-09-10T02:42:47.801Z,58.83
2022-09-10T02:45:14.871Z,59.17
2022-09-10T02:47:42.324Z,58.06
2022-09-10T02:50:09.374Z,59.17
2022-09-10T02:52:37.086Z,58.60
2022-09-10T02:55:04.334Z,58.19
2022-09-10T02:57:31.432Z,58.11
2022-09-10T02:59:58.490Z,57.21
2022-09-10T03:02:25.923Z,58.50
2022-09-10T03:04:52.990Z,59.08
2022-09-10T03:07:20.270Z,58.14
2022-09-10T03:09:47.602Z,57.78
2022-09-10T03:12:18.725Z,56.95
2022-09-10T03:14:47.358Z,56.83
2022-09-10T03:17:14.516Z,57.75
2022-09-10T03:19:41.604Z,57.84
2022-09-10T03:22:08.690Z,57.88
2022-09-10T03:24:35.787Z,57.42
2022-09-10T03:27:02.901Z,58.49
2022-09-10T03:29:30.228Z,58.81
2022-09-10T03:31:57.405Z,59.03
2022-09-10T03:34:24.597Z,57.96
2022-09-10T03:36:51.797Z,58.85
2022-09-10T03:39:19.007Z,58.25
2022-09-10T03:41:46.270Z,58.67
2022-09-10T03:44:13.329Z,60.75
2022-09-10T03:46:41.327Z,59.17
2022-09-10T03:49:08.408Z,59.14
2022-09-10T03:51:35.767Z,60.32
2022-09-10T03:54:04.352Z,59.10
2022-09-10T03:56:32.177Z,58.49
2022-09-10T03:58:59.698Z,57.81
2022-09-10T04:01:27.482Z,58.27
2022-09-10T04:03:55.337Z,59.05
2022-09-10T04:06:22.413Z,58.59
2022-09-10T04:08:49.946Z,59.29
2022-09-10T04:11:16.998Z,58.15
2022-09-10T04:13:48.520Z,57.30
2022-09-10T04:16:16.705Z,58.22
2022-09-10T04:18:44.053Z,56.91
2022-09-10T04:21:11.885Z,57.49
2022-09-10T04:23:41.245Z,56.95
2022-09-10T04:26:15.147Z,57.33
2022-09-10T04:28:43.639Z,56.88
2022-09-10T04:31:10.878Z,56.31
2022-09-10T04:33:37.929Z,56.99
2022-09-10T04:36:05.152Z,56.87
2022-09-10T04:38:32.831Z,56.74
2022-09-10T04:41:00.813Z,56.26
2022-09-10T04:43:27.858Z,57.39
2022-09-10T04:45:55.489Z,56.44
2022-09-10T04:48:23.031Z,56.17
2022-09-10T04:51:14.710Z,55.76
2022-09-10T04:53:40.672Z,56.49
2022-09-10T04:56:07.791Z,56.91
2022-09-10T04:58:38.948Z,57.36
2022-09-10T05:01:06.758Z,55.97
2022-09-10T05:03:34.152Z,56.59
2022-09-10T05:06:01.249Z,56.72
2022-09-10T05:08:28.326Z,55.89
2022-09-10T05:10:55.673Z,56.20
2022-09-10T05:13:24.242Z,56.90
2022-09-10T05:15:51.268Z,56.79
2022-09-10T05:18:18.314Z,57.51
2022-09-10T05:20:45.444Z,56.80
2022-09-10T05:23:12.594Z,56.28
2022-09-10T05:25:39.624Z,55.93
2022-09-10T05:28:06.681Z,55.54
2022-09-10T05:30:33.770Z,56.92
2022-09-10T05:33:01.239Z,55.71
2022-09-10T05:35:28.926Z,56.29
2022-09-10T05:37:57.395Z,56.76
2022-09-10T05:40:25.476Z,57.36
2022-09-10T05:42:53.264Z,56.17
2022-09-10T05:45:20.488Z,56.72
2022-09-10T05:47:47.569Z,56.58
2022-09-10T05:50:14.726Z,56.53
2022-09-10T05:52:41.756Z,57.81
2022-09-10T05:55:09.278Z,56.97
2022-09-10T05:57:36.617Z,58.68
2022-09-10T06:00:05.154Z,57.97
2022-09-10T06:02:33.567Z,58.52
2022-09-10T06:05:00.814Z,56.92
2022-09-10T06:07:31.193Z,58.14
2022-09-10T06:09:58.261Z,57.04
2022-09-10T06:12:25.701Z,57.13
2022-09-10T06:14:53.081Z,57.73
2022-09-10T06:17:20.175Z,56.91
2022-09-10T06:19:47.291Z,57.55
2022-09-10T06:22:14.564Z,57.43
2022-09-10T06:24:42.053Z,56.10
2022-09-10T06:27:09.681Z,56.49
2022-09-10T06:29:37.313Z,56.12
2022-09-10T06:32:04.716Z,55.80
2022-09-10T06:34:32.329Z,57.33
2022-09-10T06:36:59.614Z,55.33
2022-09-10T06:39:28.908Z,55.99
2022-09-10T06:41:56.050Z,56.34
2022-09-10T06:44:23.087Z,55.60
2022-09-10T06:47:32.462Z,56.74
2022-09-10T06:49:37.815Z,55.03
2022-09-10T06:52:04.891Z,54.87
2022-09-10T06:54:32.175Z,55.03
2022-09-10T06:56:59.303Z,54.95
2022-09-10T06:59:26.360Z,54.92
2022-09-10T07:01:53.937Z,57.09
2022-09-10T07:04:21.052Z,56.57
2022-09-10T07:06:50.462Z,56.65
2022-09-10T07:09:17.530Z,53.83
2022-09-10T07:11:44.569Z,54.26
2022-09-10T07:14:14.724Z,53.13
2022-09-10T07:16:42.180Z,53.71
2022-09-10T07:19:09.770Z,54.76
2022-09-10T07:21:37.894Z,53.77
2022-09-10T07:24:05.868Z,52.54
2022-09-10T07:26:33.000Z,53.66
2022-09-10T07:29:00.082Z,51.98
2022-09-10T07:31:28.139Z,53.04
2022-09-10T07:33:55.619Z,53.53
2022-09-10T07:36:22.650Z,53.12
2022-09-10T07:38:51.447Z,53.44
2022-09-10T07:41:18.683Z,53.79
2022-09-10T07:43:46.249Z,54.18
2022-09-10T07:46:14.139Z,53.98
2022-09-10T07:48:41.645Z,53.55
2022-09-10T07:51:09.017Z,51.72
2022-09-10T07:53:36.081Z,53.05
2022-09-10T07:56:06.613Z,53.03
2022-09-10T07:58:34.070Z,53.52
2022-09-10T08:01:02.343Z,53.43
2022-09-10T08:03:29.464Z,53.98
2022-09-10T08:06:00.149Z,52.18
2022-09-10T08:08:31.723Z,52.12
2022-09-10T08:11:11.230Z,53.00
2022-09-10T08:13:41.439Z,51.72
2022-09-10T08:16:12.560Z,52.29
2022-09-10T08:18:39.893Z,49.76
2022-09-10T08:21:08.611Z,51.35
2022-09-10T08:23:37.385Z,50.65
2022-09-10T08:26:06.459Z,50.68
2022-09-10T08:28:34.073Z,51.38
2022-09-10T08:31:08.657Z,51.40
2022-09-10T08:33:35.980Z,51.53
2022-09-10T08:36:03.237Z,51.29
2022-09-10T08:38:31.520Z,53.02
2022-09-10T08:41:00.156Z,51.33
2022-09-10T08:43:41.871Z,49.12
2022-09-10T08:46:12.005Z,50.17
2022-09-10T08:48:40.965Z,51.33
2022-09-10T08:51:13.665Z,52.00
2022-09-10T08:53:43.868Z,51.78
2022-09-10T08:56:14.127Z,51.54
2022-09-10T08:58:53.477Z,51.57
2022-09-10T09:01:31.507Z,50.68
2022-09-10T09:04:01.620Z,51.07
2022-09-10T09:06:35.429Z,51.61
2022-09-10T09:09:03.241Z,49.53
2022-09-10T09:11:37.031Z,48.80
2022-09-10T09:14:22.774Z,48.86
2022-09-10T09:17:10.192Z,49.11
2022-09-10T09:19:56.083Z,48.58
2022-09-10T09:22:46.154Z,50.04
2022-09-10T09:25:30.613Z,48.42
2022-09-10T09:27:57.694Z,48.46
2022-09-10T09:30:27.613Z,47.58
2022-09-10T09:32:55.943Z,47.55
2022-09-10T09:35:28.558Z,47.25
2022-09-10T09:38:15.867Z,49.10
2022-09-10T09:40:47.391Z,47.10
2022-09-10T09:43:16.847Z,47.06
2022-09-10T09:45:44.089Z,45.96
2022-09-10T09:48:15.877Z,46.74
2022-09-10T09:50:43.907Z,45.89
2022-09-10T09:53:15.251Z,45.75
2022-09-10T09:55:47.225Z,44.46
2022-09-10T09:58:26.822Z,43.74
2022-09-10T10:01:03.756Z,44.59
2022-09-10T10:03:52.197Z,43.80
2022-09-10T10:06:21.208Z,44.19
2022-09-10T10:09:20.694Z,45.84
2022-09-10T10:11:48.865Z,45.82
2022-09-10T10:14:17.706Z,46.53
2022-09-10T10:16:45.888Z,46.55
2022-09-10T10:19:29.302Z,47.22
2022-09-10T10:21:56.347Z,47.12
2022-09-10T10:24:30.802Z,47.81
2022-09-10T10:26:58.835Z,48.17
2022-09-10T10:29:26.189Z,47.60
2022-09-10T10:31:53.643Z,47.29
2022-09-10T10:34:27.236Z,46.70
2022-09-10T10:37:09.379Z,47.88
2022-09-10T10:39:36.526Z,47.80
2022-09-10T10:42:05.881Z,48.59
2022-09-10T10:44:36.204Z,48.47
2022-09-10T10:47:06.235Z,48.46
2022-09-10T10:49:53.364Z,48.68
2022-09-10T10:52:44.556Z,46.75
2022-09-10T10:55:25.333Z,48.42
2022-09-10T10:57:58.366Z,46.25
2022-09-10T11:00:25.494Z,47.93
2022-09-10T11:02:54.688Z,47.61
2022-09-10T11:05:31.164Z,48.53
2022-09-10T11:08:06.528Z,50.23
2022-09-10T11:10:33.742Z,49.41
2022-09-10T11:13:05.953Z,47.65
2022-09-10T11:15:52.524Z,49.16
2022-09-10T11:18:24.379Z,49.95
2022-09-10T11:21:21.048Z,48.45
2022-09-10T11:23:48.965Z,48.99
2022-09-10T11:26:18.272Z,50.57
2022-09-10T11:28:46.928Z,48.45
2022-09-10T11:31:18.960Z,50.36
2022-09-10T11:33:49.367Z,51.95
2022-09-10T11:36:23.722Z,48.48
2022-09-10T11:39:06.437Z,49.73
2022-09-10T11:41:33.936Z,51.54
2022-09-10T11:44:19.975Z,49.02
2022-09-10T11:46:47.018Z,50.79
2022-09-10T11:49:23.015Z,48.64
2022-09-10T11:51:50.188Z,48.83
2022-09-10T11:54:27.507Z,51.45
2022-09-10T11:57:06.850Z,54.06
2022-09-10T11:59:44.520Z,53.19
2022-09-10T12:02:21.598Z,57.08
2022-09-10T12:04:57.889Z,56.32
2022-09-10T12:07:28.099Z,59.87
2022-09-10T12:10:02.241Z,61.02
2022-09-10T12:12:31.608Z,59.56
2022-09-10T12:14:59.550Z,55.56
2022-09-10T12:17:28.884Z,55.11
2022-09-10T12:19:56.738Z,55.24
2022-09-10T12:22:36.901Z,52.76
2022-09-10T12:25:07.595Z,53.29
2022-09-10T12:27:43.845Z,54.18
2022-09-10T12:30:29.309Z,57.36
2022-09-10T12:33:00.691Z,58.15
2022-09-10T12:35:39.770Z,63.56
2022-09-10T12:38:25.461Z,65.34
2022-09-10T12:40:52.591Z,60.09
2022-09-10T12:43:38.583Z,61.64
2022-09-10T12:46:05.802Z,65.91
2022-09-10T12:48:34.442Z,66.55
2022-09-10T12:51:04.229Z,69.29
2022-09-10T12:53:31.398Z,71.55
2022-09-10T12:56:02.305Z,71.80
2022-09-10T12:58:29.480Z,73.39
2022-09-10T13:00:56.508Z,73.00
2022-09-10T13:03:24.430Z,70.59
2022-09-10T13:05:54.206Z,73.14
2022-09-10T13:08:25.791Z,71.29
2022-09-10T13:10:57.341Z,74.02
2022-09-10T13:13:30.731Z,66.77
2022-09-10T13:15:57.963Z,68.78
2022-09-10T13:18:26.674Z,67.27
2022-09-10T13:20:53.992Z,70.33
2022-09-10T13:23:22.428Z,67.44
2022-09-10T13:25:50.143Z,68.75
2022-09-10T13:28:29.951Z,69.55
2022-09-10T13:31:05.955Z,64.46
2022-09-10T13:33:34.288Z,67.89
2022-09-10T13:36:20.236Z,69.42
2022-09-10T13:38:58.598Z,71.57
2022-09-10T13:41:48.547Z,66.26
2022-09-10T13:44:15.967Z,67.69
2022-09-10T13:46:44.393Z,69.13
2022-09-10T13:49:13.829Z,69.03
2022-09-10T13:51:46.244Z,64.85
2022-09-10T13:54:33.222Z,66.59
2022-09-10T13:57:11.680Z,64.79
2022-09-10T13:59:38.950Z,65.26
2022-09-10T14:02:06.054Z,66.57
2022-09-10T14:04:33.189Z,63.48
2022-09-10T14:07:06.207Z,62.34
2022-09-10T14:09:33.299Z,64.28
2022-09-10T14:12:03.742Z,61.82
2022-09-10T14:14:31.322Z,66.90
2022-09-10T14:17:00.371Z,62.33
2022-09-10T14:19:37.409Z,65.47
2022-09-10T14:22:08.246Z,64.98
2022-09-10T14:24:37.543Z,64.80
2022-09-10T14:27:15.661Z,62.09
2022-09-10T14:29:42.802Z,64.21
2022-09-10T14:32:20.083Z,61.22
2022-09-10T14:34:47.942Z,63.62
2022-09-10T14:37:34.275Z,64.25
2022-09-10T14:40:02.066Z,66.81
2022-09-10T14:42:35.953Z,69.95
2022-09-10T14:45:03.279Z,66.81
2022-09-10T14:47:34.989Z,65.39
2022-09-10T14:50:43.862Z,62.09
2022-09-10T14:53:10.877Z,60.99
2022-09-10T14:55:38.770Z,61.43
2022-09-10T14:58:06.453Z,59.86
2022-09-10T15:00:33.509Z,61.70
2022-09-10T15:03:00.710Z,60.63
2022-09-10T15:05:27.884Z,61.40
2022-09-10T15:07:55.346Z,60.12
2022-09-10T15:10:22.688Z,61.70
2022-09-10T15:12:52.113Z,60.70
2022-09-10T15:15:19.602Z,60.52
2022-09-10T15:17:46.993Z,60.67
2022-09-10T15:20:14.712Z,61.15
2022-09-10T15:22:43.003Z,58.64
2022-09-10T15:25:22.798Z,59.14
2022-09-10T15:27:49.864Z,60.02
2022-09-10T15:30:16.916Z,60.37
2022-09-10T15:32:45.960Z,62.02
2022-09-10T15:35:13.043Z,59.58
2022-09-10T15:37:40.603Z,61.51
2022-09-10T15:40:09.375Z,60.47
2022-09-10T15:42:36.729Z,60.14
2022-09-10T15:45:04.097Z,60.37
2022-09-10T15:47:33.558Z,60.15
2022-09-10T15:50:00.654Z,63.50
2022-09-10T15:52:28.119Z,60.71
2022-09-10T15:54:55.295Z,61.56
2022-09-10T15:57:22.427Z,60.65
2022-09-10T15:59:50.195Z,61.70
2022-09-10T16:02:18.541Z,62.07
2022-09-10T16:04:45.688Z,63.44
2022-09-10T16:07:14.422Z,63.48
2022-09-10T16:09:43.553Z,63.69
2022-09-10T16:12:11.357Z,61.23
2022-09-10T16:14:38.605Z,60.08
2022-09-10T16:17:10.474Z,60.02
2022-09-10T16:19:38.190Z,58.97
2022-09-10T16:22:05.431Z,59.44
2022-09-10T16:24:32.480Z,59.19
2022-09-10T16:27:00.091Z,58.52
2022-09-10T16:29:28.604Z,59.16
2022-09-10T16:31:56.564Z,61.02
2022-09-10T16:34:24.507Z,59.80
2022-09-10T16:36:51.697Z,57.13
2022-09-10T16:39:18.949Z,57.59
2022-09-10T16:41:47.058Z,59.99
2022-09-10T16:44:14.852Z,59.19
2022-09-10T16:46:42.321Z,59.47
2022-09-10T16:49:12.483Z,61.63
2022-09-10T16:51:40.607Z,58.06
2022-09-10T16:54:08.060Z,59.80
2022-09-10T16:56:35.629Z,57.56
2022-09-10T16:59:02.742Z,57.51
2022-09-10T17:01:31.234Z,56.50
2022-09-10T17:03:58.368Z,56.67
2022-09-10T17:06:26.232Z,55.27
2022-09-10T17:08:53.669Z,56.00
2022-09-10T17:11:20.962Z,54.61
2022-09-10T17:13:48.821Z,55.02
2022-09-10T17:16:16.999Z,54.48
2022-09-10T17:18:44.582Z,54.41
2022-09-10T17:21:11.740Z,53.77
2022-09-10T17:23:38.766Z,54.78
2022-09-10T17:26:06.718Z,55.05
2022-09-10T17:28:33.841Z,54.82
2022-09-10T17:31:00.975Z,54.81
2022-09-10T17:33:28.238Z,54.68
2022-09-10T17:36:00.242Z,53.04
2022-09-10T17:38:28.695Z,54.60
2022-09-10T17:40:58.031Z,53.93
2022-09-10T17:43:27.405Z,52.73
2022-09-10T17:45:55.313Z,51.61
2022-09-10T17:48:25.228Z,51.14
2022-09-10T17:50:55.384Z,50.95
2022-09-10T17:53:24.110Z,50.76
2022-09-10T17:55:51.177Z,51.62
2022-09-10T17:58:18.352Z,52.19
2022-09-10T18:00:48.710Z,50.78
2022-09-10T18:03:17.672Z,52.48
2022-09-10T18:05:44.954Z,50.97
2022-09-10T18:08:12.338Z,52.51
2022-09-10T18:10:40.292Z,52.65
2022-09-10T18:13:10.080Z,52.61
2022-09-10T18:15:42.358Z,50.68
2022-09-10T18:18:09.652Z,51.54
2022-09-10T18:20:37.084Z,49.41
2022-09-10T18:23:04.309Z,48.85
2022-09-10T18:25:31.910Z,48.83
2022-09-10T18:28:01.481Z,48.80
2022-09-10T18:30:28.968Z,47.93
2022-09-10T18:32:56.011Z,46.77
2022-09-10T18:35:23.147Z,48.27
2022-09-10T18:37:51.754Z,46.11
2022-09-10T18:40:19.663Z,45.07
2022-09-10T18:42:47.851Z,45.51
2022-09-10T18:45:14.918Z,44.82
2022-09-10T18:47:45.280Z,44.77
2022-09-10T18:50:13.367Z,44.97
2022-09-10T18:52:41.543Z,45.01
2022-09-10T18:55:09.054Z,45.14
2022-09-10T18:57:36.891Z,46.31
2022-09-10T19:00:04.316Z,46.48
2022-09-10T19:02:31.567Z,46.53
2022-09-10T19:05:11.348Z,44.96
2022-09-10T19:07:40.713Z,46.45
2022-09-10T19:10:08.924Z,46.37
2022-09-10T19:12:36.013Z,47.70
2022-09-10T19:15:03.270Z,46.69
2022-09-10T19:17:31.479Z,47.89
2022-09-10T19:19:58.513Z,48.19
2022-09-10T19:22:25.546Z,46.58
2022-09-10T19:24:55.261Z,47.32
2022-09-10T19:27:23.407Z,46.23
2022-09-10T19:29:50.743Z,46.08
2022-09-10T19:32:19.716Z,44.82
2022-09-10T19:34:50.801Z,45.55
2022-09-10T19:37:17.850Z,45.84
2022-09-10T19:39:45.435Z,44.57
2022-09-10T19:42:12.718Z,44.88
2022-09-10T19:44:40.315Z,44.33
2022-09-10T19:47:07.360Z,44.28
2022-09-10T19:49:34.614Z,43.84
2022-09-10T19:52:01.995Z,43.75
2022-09-10T19:54:29.864Z,43.70
2022-09-10T19:56:56.933Z,43.88
2022-09-10T19:59:24.121Z,43.65
2022-09-10T20:01:51.283Z,43.36
2022-09-10T20:04:18.943Z,43.44
2022-09-10T20:06:47.675Z,43.56
2022-09-10T20:09:14.807Z,43.26
2022-09-10T20:11:41.868Z,43.71
2022-09-10T20:14:13.208Z,44.08
2022-09-10T20:16:42.323Z,43.38
2022-09-10T20:19:10.945Z,43.04
2022-09-10T20:21:38.282Z,43.38
2022-09-10T20:24:08.664Z,42.85
2022-09-10T20:26:38.216Z,41.98
2022-09-10T20:29:06.142Z,41.75
2022-09-10T20:31:33.873Z,42.31
2022-09-10T20:34:03.493Z,41.39
2022-09-10T20:36:31.563Z,41.26
2022-09-10T20:38:58.753Z,41.70
2022-09-10T20:41:30.306Z,40.23
2022-09-10T20:43:58.705Z,39.61
2022-09-10T20:46:26.835Z,39.41
2022-09-10T20:48:55.005Z,38.98
2022-09-10T20:51:22.070Z,38.08
2022-09-10T20:53:49.382Z,38.28
2022-09-10T20:56:17.954Z,37.89
2022-09-10T20:58:45.717Z,36.69
2022-09-10T21:01:16.978Z,37.03
2022-09-10T21:03:44.363Z,37.68
2022-09-10T21:06:11.721Z,37.20
2022-09-10T21:08:39.508Z,36.69
2022-09-10T21:11:08.327Z,36.92
2022-09-10T21:13:38.912Z,36.34
2022-09-10T21:16:07.428Z,36.68
2022-09-10T21:18:35.197Z,36.44
2022-09-10T21:21:06.412Z,36.59
2022-09-10T21:23:33.747Z,36.31
2022-09-10T21:26:00.829Z,36.08
2022-09-10T21:28:28.115Z,36.14
2022-09-10T21:30:55.255Z,36.40
2022-09-10T21:33:22.749Z,36.48
2022-09-10T21:35:58.246Z,36.43
2022-09-10T21:38:25.750Z,35.55
2022-09-10T21:40:57.281Z,35.70
2022-09-10T21:43:27.612Z,36.54
2022-09-10T21:45:54.767Z,35.67
2022-09-10T21:48:23.190Z,35.54
2022-09-10T21:50:57.410Z,35.64
2022-09-10T21:53:24.763Z,35.65
2022-09-10T21:55:55.945Z,35.81
2022-09-10T21:58:23.590Z,35.60
2022-09-10T22:00:50.619Z,35.58
2022-09-10T22:03:17.931Z,35.14
2022-09-10T22:05:45.338Z,35.43
2022-09-10T22:08:13.675Z,34.99
2022-09-10T22:10:42.413Z,34.80
2022-09-10T22:13:09.816Z,34.79
2022-09-10T22:15:40.341Z,34.79
2022-09-10T22:18:08.319Z,35.03
2022-09-10T22:20:36.087Z,34.79
2022-09-10T22:23:03.901Z,35.05
2022-09-10T22:25:31.324Z,35.26
2022-09-10T22:27:59.084Z,34.88
2022-09-10T22:30:29.438Z,34.63
2022-09-10T22:32:56.950Z,34.93
2022-09-10T22:35:27.198Z,34.66
2022-09-10T22:37:56.106Z,34.83
2022-09-10T22:40:23.956Z,34.66
2022-09-10T22:42:51.971Z,34.93
2022-09-10T22:45:20.745Z,35.36
2022-09-10T22:47:48.290Z,35.12
2022-09-10T22:50:15.448Z,35.18
2022-09-10T22:52:43.733Z,35.04
2022-09-10T22:55:10.855Z,35.46
2022-09-10T22:57:39.572Z,35.31
2022-09-10T23:00:08.103Z,35.04
2022-09-10T23:02:35.635Z,35.01
2022-09-10T23:05:02.696Z,35.29
2022-09-10T23:07:29.811Z,35.26
2022-09-10T23:09:57.291Z,34.99
2022-09-10T23:12:24.592Z,35.50
2022-09-10T23:14:51.629Z,35.49
2022-09-10T23:17:22.429Z,35.52
2022-09-10T23:19:49.733Z,35.25
2022-09-10T23:22:17.092Z,35.71
2022-09-10T23:24:44.200Z,35.32
2022-09-10T23:27:12.848Z,35.39
2022-09-10T23:29:41.249Z,36.02
2022-09-10T23:32:08.342Z,35.52
2022-09-10T23:34:36.085Z,35.52
2022-09-10T23:37:03.305Z,35.85
2022-09-10T23:39:30.471Z,35.84
2022-09-10T23:41:58.325Z,35.85
2022-09-10T23:44:25.696Z,36.11
2022-09-10T23:46:53.505Z,36.19
2022-09-10T23:49:20.623Z,36.08
2022-09-10T23:51:49.134Z,36.13
2022-09-10T23:54:16.406Z,36.27
2022-09-10T23:56:43.808Z,36.12
2022-09-10T23:59:11.554Z,36.38
